Decoded Metar for KGLD (GOODLAND in KS, USA) (IATA:GLD) | Meteo·Mobile Aviation Weather
aviador You're here:

KGLD Decoded Metar

GOODLAND in KS, USA
Report Time2018-11-19 08:53:00
UTC Time2018-11-19 09:53:01
Flight Rules vfr VFR
Wind310° at 09 kt
W.Decomp.*RWY 30: 9.0 kt HW 0.2 kt RCW
RWY 35: 5.9 kt HW 6.8 kt LCW
RWY 23: 2.9 kt HW 8.5 kt RCW
W.Rank310° ranks 15
Current wind is below 310° avg. (9.7)
Visibility9999 m
Phenomena:N/A
Clouds:N/A
Expected CloudBase > 1,600 ft AGL from Temp-Dew spread
CeilingNone
Temp-3°C (ISA -11)
Dew Point-7°C (74% RH)
AAT-9.0°C
QNH1018 hPa
Density Alt2,234 ft
Elevation3,652 ft
Report Wrong Elevation
Raw Report
KGLD 190853Z AUTO 31009KT 10SM CLR M03/M07 A3007 RMK AO2 SLP197
T10331072 51012=

Extra information for KGLD:More info

Metar Taf Metar & Taf Last 4 Metars F.Rules Stats Wind Profile Meteogram Temp Stats Airport Information Weather charts Add Link Nearby VenuesMetar ALERT Operation Metar Decoded Social comments

AIRNAV info for KGLD